Time;durP1;ratioP1;P1;durP2;ratioP2;P2;SDS_P1;SDS_P2;PMS_P1;PMS_P2;Temp;Humidity;BMP_temperature;BMP_pressure;BME280_temperature;BME280_humidity;BME280_pressure;Samples;Min_cycle;Max_cycle;Signal;HPM_P1;HPM_P2
2022/04/15 00:00:32;;;;;;;10.63;5.60;;;13.60;1.00;;;;;;5066923;28;20395;-54
2022/04/15 00:02:57;;;;;;;10.77;5.20;;;13.60;37.80;;;;;;5055995;28;20388;-54
2022/04/15 00:05:40;;;;;;;11.05;4.90;;;13.60;36.70;;;;;;5059747;28;20372;-53
2022/04/15 00:08:12;;;;;;;12.20;5.72;;;13.60;99.90;;;;;;5057566;28;20466;-54
2022/04/15 00:10:45;;;;;;;11.15;4.80;;;13.70;1.00;;;;;;5063161;28;20436;-54
2022/04/15 00:13:12;;;;;;;10.00;5.70;;;13.70;1.00;;;;;;5054242;28;20454;-54
2022/04/15 00:15:38;;;;;;;9.63;5.18;;;13.70;1.00;;;;;;5052512;28;20399;-54
2022/04/15 00:18:04;;;;;;;13.02;5.50;;;13.60;1.00;;;;;;5061074;28;20388;-54
2022/04/15 00:20:30;;;;;;;10.32;5.45;;;13.50;99.90;;;;;;5072845;28;20438;-54
2022/04/15 00:22:58;;;;;;;12.80;5.68;;;13.40;1.00;;;;;;5070748;28;20376;-54
2022/04/15 00:25:24;;;;;;;11.85;6.03;;;13.40;1.00;;;;;;5057518;28;20420;-54
2022/04/15 00:27:50;;;;;;;10.57;5.50;;;13.50;99.90;;;;;;5056482;28;20409;-54
2022/04/15 00:30:15;;;;;;;13.80;5.70;;;13.50;99.90;;;;;;5057079;28;20443;-53
2022/04/15 00:32:41;;;;;;;11.55;5.70;;;13.40;99.90;;;;;;5068474;28;20418;-54
2022/04/15 00:35:08;;;;;;;11.43;6.10;;;13.40;99.90;;;;;;5072847;28;20490;-53
2022/04/15 00:37:33;;;;;;;10.48;5.80;;;13.40;99.90;;;;;;5064567;28;20389;-54
2022/04/15 00:40:02;;;;;;;11.30;6.00;;;13.40;99.90;;;;;;5057095;28;20382;-54
2022/04/15 00:42:29;;;;;;;12.25;5.75;;;13.40;99.90;;;;;;5059051;28;20396;-54
2022/04/15 00:44:56;;;;;;;13.45;6.15;;;13.40;99.90;;;;;;5052667;28;20399;-54
2022/04/15 00:47:54;;;;;;;10.30;5.53;;;13.40;99.90;;;;;;5056552;28;20560;-53
2022/04/15 00:50:25;;;;;;;11.68;5.28;;;13.40;99.90;;;;;;5020331;28;20914;-54
2022/04/15 00:52:53;;;;;;;10.02;5.30;;;13.40;99.90;;;;;;5038467;28;20525;-54
2022/04/15 00:55:21;;;;;;;12.25;6.18;;;13.40;96.70;;;;;;5072593;28;20783;-53
2022/04/15 00:57:50;;;;;;;10.45;6.35;;;13.30;99.90;;;;;;5071636;28;20395;-53
2022/04/15 01:00:17;;;;;;;12.23;6.67;;;13.10;1.00;;;;;;5059502;28;20973;-53
2022/04/15 01:02:44;;;;;;;11.27;6.90;;;13.10;1.00;;;;;;5058338;28;20457;-53
2022/04/15 01:05:11;;;;;;;14.35;7.20;;;13.10;1.00;;;;;;5057672;28;20437;-53
2022/04/15 01:07:42;;;;;;;11.67;6.40;;;13.10;1.00;;;;;;5055542;28;20381;-54
2022/04/15 01:10:10;;;;;;;15.73;7.55;;;13.20;1.00;;;;;;5056329;28;20386;-53
2022/04/15 01:12:53;;;;;;;13.07;6.35;;;13.20;1.00;;;;;;5071025;28;20460;-52
2022/04/15 01:15:21;;;;;;;11.82;7.30;;;13.30;1.00;;;;;;5067046;28;20438;-52
2022/04/15 01:17:47;;;;;;;13.05;6.80;;;13.30;1.00;;;;;;5055994;28;20385;-51
2022/04/15 01:20:14;;;;;;;12.07;6.80;;;13.30;1.00;;;;;;5056418;28;20428;-51
2022/04/15 01:22:41;;;;;;;11.23;6.65;;;13.30;1.00;;;;;;5070925;28;20376;-53
2022/04/15 01:25:07;;;;;;;11.80;7.00;;;13.30;1.00;;;;;;5071745;28;20398;-54
2022/04/15 01:27:36;;;;;;;11.90;7.10;;;13.30;1.00;;;;;;5071158;28;20372;-53
2022/04/15 01:30:04;;;;;;;14.87;7.53;;;13.30;99.90;;;;;;5070681;28;20392;-54
2022/04/15 01:32:29;;;;;;;11.82;6.72;;;13.30;99.90;;;;;;5071297;28;20388;-54
2022/04/15 01:34:56;;;;;;;12.63;8.07;;;13.30;99.90;;;;;;5071356;28;20442;-53
2022/04/15 01:37:23;;;;;;;13.27;7.20;;;13.20;99.90;;;;;;5053856;28;20387;-53
2022/04/15 01:39:50;;;;;;;13.38;7.50;;;13.30;99.90;;;;;;5070908;28;20384;-54
2022/04/15 01:42:16;;;;;;;12.18;6.93;;;13.30;99.90;;;;;;5071176;28;20432;-53
2022/04/15 01:44:43;;;;;;;13.63;6.70;;;13.30;99.90;;;;;;5069500;28;20387;-54
2022/04/15 01:47:10;;;;;;;12.27;6.80;;;13.20;1.00;;;;;;5071306;28;20384;-56
2022/04/15 01:49:36;;;;;;;11.13;6.45;;;13.30;99.90;;;;;;5070691;28;20420;-53
2022/04/15 01:52:03;;;;;;;13.65;7.07;;;13.20;1.00;;;;;;5071326;28;20380;-53
2022/04/15 01:54:29;;;;;;;13.52;6.80;;;13.10;1.00;;;;;;5052829;28;20715;-53
2022/04/15 01:56:55;;;;;;;11.37;7.10;;;13.10;1.00;;;;;;5070729;28;20382;-53
2022/04/15 01:59:21;;;;;;;12.75;7.35;;;13.00;1.00;;;;;;5071331;28;20414;-53
2022/04/15 02:01:47;;;;;;;16.27;7.60;;;12.90;1.00;;;;;;5070356;28;20372;-53
2022/04/15 02:04:13;;;;;;;12.30;6.43;;;13.00;1.00;;;;;;5070989;28;20805;-53
2022/04/15 02:06:39;;;;;;;12.03;6.87;;;12.90;1.00;;;;;;5069994;28;20749;-54
2022/04/15 02:09:04;;;;;;;13.02;7.15;;;12.90;1.00;;;;;;5070931;28;20411;-53
2022/04/15 02:11:30;;;;;;;12.13;6.50;;;12.90;1.00;;;;;;5070895;28;20873;-53
2022/04/15 02:13:56;;;;;;;11.85;7.00;;;12.90;1.00;;;;;;5070638;28;20462;-53
2022/04/15 02:16:21;;;;;;;13.98;7.78;;;12.90;1.00;;;;;;5070540;28;20547;-53
2022/04/15 02:18:47;;;;;;;13.00;6.80;;;12.80;1.00;;;;;;5069927;28;20891;-54
2022/04/15 02:21:13;;;;;;;12.40;7.28;;;12.70;1.00;;;;;;5070579;28;20419;-53
2022/04/15 02:23:39;;;;;;;14.68;8.35;;;12.70;1.00;;;;;;5070018;28;20445;-53
2022/04/15 02:26:05;;;;;;;13.30;7.40;;;12.80;1.00;;;;;;5070737;28;20561;-53
2022/04/15 02:28:30;;;;;;;12.60;7.20;;;12.80;29.30;;;;;;5070175;28;20885;-53
2022/04/15 02:30:56;;;;;;;13.48;7.38;;;12.70;12.60;;;;;;5069893;28;20392;-53
2022/04/15 02:33:22;;;;;;;14.97;7.90;;;12.80;26.00;;;;;;5070507;28;20799;-52
2022/04/15 02:35:48;;;;;;;14.95;7.32;;;12.70;1.00;;;;;;5052099;28;20772;-52
2022/04/15 02:38:13;;;;;;;12.93;7.80;;;12.60;1.00;;;;;;5070199;28;20387;-52
2022/04/15 02:40:39;;;;;;;16.00;7.60;;;12.40;1.00;;;;;;5069288;28;20384;-52
2022/04/15 02:43:06;;;;;;;14.90;8.40;;;12.30;19.80;;;;;;5069888;28;20416;-52
2022/04/15 02:45:32;;;;;;;13.52;7.85;;;12.20;1.00;;;;;;5070362;28;20380;-52
2022/04/15 02:47:58;;;;;;;12.95;8.35;;;12.10;59.30;;;;;;5069164;28;20435;-52
2022/04/15 02:50:24;;;;;;;12.90;8.32;;;12.00;95.50;;;;;;5069933;28;20392;-52
2022/04/15 02:52:50;;;;;;;15.25;8.00;;;10.80;95.30;;;;;;5051454;28;20394;-52
2022/04/15 02:55:16;;;;;;;14.23;8.00;;;11.80;92.50;;;;;;5070383;28;20387;-52
2022/04/15 02:57:42;;;;;;;13.98;8.32;;;11.70;95.80;;;;;;5069049;28;20467;-52
2022/04/15 03:00:08;;;;;;;11.80;7.50;;;11.70;99.10;;;;;;5052200;28;20517;-53
2022/04/15 03:02:34;;;;;;;12.80;7.87;;;11.70;94.90;;;;;;5069568;28;20395;-52
2022/04/15 03:05:01;;;;;;;11.43;7.18;;;11.70;76.00;;;;;;5069703;28;20950;-52
2022/04/15 03:07:27;;;;;;;13.20;7.50;;;11.80;97.40;;;;;;5068239;28;20380;-52
2022/04/15 03:09:58;;;;;;;14.33;7.73;;;11.90;71.40;;;;;;5065293;28;20422;-52
2022/04/15 03:12:24;;;;;;;12.65;7.20;;;12.10;70.80;;;;;;5070252;28;20388;-52
2022/04/15 03:14:51;;;;;;;13.80;7.27;;;12.20;99.90;;;;;;5069163;28;20868;-52
2022/04/15 03:17:18;;;;;;;13.90;7.60;;;12.30;99.90;;;;;;5069234;28;20860;-52
2022/04/15 03:19:44;;;;;;;14.15;7.05;;;12.30;88.00;;;;;;5067272;28;20399;-53
2022/04/15 03:22:09;;;;;;;13.83;7.20;;;12.30;1.00;;;;;;5069286;28;20757;-53
2022/04/15 03:24:35;;;;;;;14.87;7.93;;;12.30;1.00;;;;;;5069436;28;20482;-53
2022/04/15 03:27:01;;;;;;;15.05;7.63;;;12.20;1.00;;;;;;5070296;28;20376;-52
2022/04/15 03:29:26;;;;;;;15.30;7.80;;;12.10;1.00;;;;;;5068952;28;20408;-52
2022/04/15 03:31:52;;;;;;;14.00;7.13;;;12.10;1.00;;;;;;5068637;28;20422;-53
2022/04/15 03:34:18;;;;;;;11.50;7.00;;;12.10;1.00;;;;;;5069495;28;20372;-53
2022/04/15 03:36:45;;;;;;;15.60;8.10;;;12.00;1.00;;;;;;5068695;28;20380;-53
2022/04/15 03:39:11;;;;;;;14.90;7.80;;;12.00;1.00;;;;;;5069702;28;20478;-53
2022/04/15 03:41:37;;;;;;;12.17;8.07;;;12.00;1.00;;;;;;5068590;28;20407;-53
2022/04/15 03:44:04;;;;;;;13.88;7.80;;;11.90;1.00;;;;;;5069623;28;20376;-53
2022/04/15 03:46:30;;;;;;;14.27;8.15;;;11.80;1.00;;;;;;5069650;28;20376;-52
2022/04/15 03:48:56;;;;;;;13.02;7.60;;;11.80;1.00;;;;;;5068702;28;20494;-52
2022/04/15 03:51:21;;;;;;;15.90;8.43;;;11.70;1.00;;;;;;5068952;28;20483;-53
2022/04/15 03:53:47;;;;;;;14.88;8.50;;;11.70;1.00;;;;;;5068102;28;20388;-52
2022/04/15 03:56:13;;;;;;;14.65;7.70;;;11.70;1.00;;;;;;5069542;28;20398;-52
2022/04/15 03:58:38;;;;;;;13.00;7.50;;;11.60;1.00;;;;;;5068338;28;20441;-52
2022/04/15 04:01:04;;;;;;;15.02;8.20;;;11.70;5.60;;;;;;5069500;28;20380;-52
2022/04/15 04:03:30;;;;;;;12.13;7.80;;;11.60;11.50;;;;;;5069351;28;20402;-52
2022/04/15 04:05:56;;;;;;;15.07;7.70;;;11.50;11.80;;;;;;5068447;28;20888;-52
2022/04/15 04:08:21;;;;;;;12.95;7.78;;;11.50;13.80;;;;;;5069600;28;20722;-52
2022/04/15 04:10:47;;;;;;;14.40;8.00;;;11.40;13.60;;;;;;5068852;28;20475;-52
2022/04/15 04:13:13;;;;;;;15.73;8.77;;;11.30;23.10;;;;;;5069185;28;20376;-52
2022/04/15 04:15:38;;;;;;;15.90;8.85;;;11.20;33.00;;;;;;5068317;28;20391;-52
2022/04/15 04:18:04;;;;;;;13.93;9.00;;;11.20;31.20;;;;;;5069363;28;20383;-52
2022/04/15 04:20:30;;;;;;;14.18;8.85;;;11.20;34.20;;;;;;5068732;28;20484;-53
2022/04/15 04:22:56;;;;;;;13.63;8.90;;;11.10;30.40;;;;;;5068443;28;20384;-53
2022/04/15 04:25:22;;;;;;;16.27;9.27;;;11.10;69.10;;;;;;5068960;28;20375;-53
2022/04/15 04:27:48;;;;;;;15.93;9.07;;;11.10;99.90;;;;;;5068107;28;20384;-53
2022/04/15 04:30:15;;;;;;;22.55;9.82;;;11.10;99.90;;;;;;5069021;28;20775;-53
2022/04/15 04:32:49;;;;;;;14.03;9.17;;;11.10;99.90;;;;;;5068548;28;20371;-53
2022/04/15 04:35:18;;;;;;;19.05;9.45;;;11.10;99.90;;;;;;5069227;28;20459;-53
2022/04/15 04:37:44;;;;;;;17.65;10.13;;;11.10;99.90;;;;;;5068334;28;20482;-53
2022/04/15 04:40:11;;;;;;;20.38;11.48;;;11.10;99.90;;;;;;5068969;28;20454;-53
2022/04/15 04:42:37;;;;;;;17.05;9.15;;;11.10;99.90;;;;;;5068630;28;20442;-53
2022/04/15 04:45:03;;;;;;;14.68;8.57;;;11.10;99.90;;;;;;5068933;28;20887;-53
2022/04/15 04:47:29;;;;;;;14.73;8.50;;;11.20;99.90;;;;;;5068481;28;20379;-53
2022/04/15 04:49:55;;;;;;;13.05;8.10;;;11.20;95.80;;;;;;5067650;28;20415;-53
2022/04/15 04:52:26;;;;;;;17.05;10.30;;;11.20;99.90;;;;;;5057725;28;20411;-53
2022/04/15 04:54:52;;;;;;;16.85;9.35;;;11.30;99.90;;;;;;5068191;28;20406;-53
2022/04/15 04:57:18;;;;;;;14.60;8.52;;;11.40;99.90;;;;;;5068445;28;20918;-53
2022/04/15 04:59:43;;;;;;;16.70;9.43;;;11.70;99.90;;;;;;5067944;28;20468;-53
2022/04/15 05:02:12;;;;;;;15.30;8.18;;;11.80;1.00;;;;;;5068743;28;20386;-53
2022/04/15 05:04:39;;;;;;;14.70;8.55;;;12.00;1.00;;;;;;5068913;28;20518;-53
2022/04/15 05:07:05;;;;;;;13.95;8.60;;;12.10;1.00;;;;;;5054319;28;20483;-53
2022/04/15 05:09:31;;;;;;;14.20;7.90;;;12.30;1.00;;;;;;5071397;28;20538;-53
2022/04/15 05:11:56;;;;;;;21.40;9.40;;;12.50;99.90;;;;;;5052851;28;20433;-53
2022/04/15 05:14:22;;;;;;;13.40;8.32;;;12.60;99.90;;;;;;5072333;28;20398;-53
2022/04/15 05:16:48;;;;;;;16.20;9.07;;;12.80;99.90;;;;;;5071123;28;20872;-53
2022/04/15 05:19:13;;;;;;;14.80;9.30;;;12.90;20.90;;;;;;5054076;28;20380;-53
2022/04/15 05:21:40;;;;;;;13.55;8.32;;;12.90;1.00;;;;;;5068507;28;20423;-54
2022/04/15 05:24:09;;;;;;;14.20;8.90;;;12.90;1.00;;;;;;5070051;28;20438;-53
2022/04/15 05:26:38;;;;;;;14.95;8.55;;;12.90;1.00;;;;;;5070251;28;20391;-53
2022/04/15 05:29:04;;;;;;;13.25;8.93;;;13.00;1.00;;;;;;5071607;28;20414;-54
2022/04/15 05:31:30;;;;;;;14.18;8.60;;;13.10;1.00;;;;;;5068652;28;20425;-53
2022/04/15 05:33:56;;;;;;;19.25;8.60;;;13.20;1.00;;;;;;5059432;28;20423;-53
2022/04/15 05:36:22;;;;;;;15.00;8.60;;;13.30;1.00;;;;;;5069472;28;20385;-53
2022/04/15 05:38:47;;;;;;;13.85;8.70;;;13.50;1.00;;;;;;5045008;28;20408;-54
2022/04/15 05:41:13;;;;;;;13.97;7.70;;;13.80;1.00;;;;;;5062678;28;20401;-54
2022/04/15 05:43:39;;;;;;;12.70;7.93;;;14.20;1.00;;;;;;5048915;28;20753;-53
2022/04/15 05:46:04;;;;;;;15.30;8.80;;;14.60;99.90;;;;;;5066823;28;20407;-54
2022/04/15 05:48:30;;;;;;;13.10;8.57;;;15.40;99.90;;;;;;5066610;28;20486;-54
2022/04/15 05:50:57;;;;;;;13.23;8.20;;;16.00;99.90;;;;;;5066378;28;20542;-54
2022/04/15 05:53:22;;;;;;;16.25;8.18;;;16.20;99.90;;;;;;5052460;28;20388;-54
2022/04/15 05:55:48;;;;;;;16.38;8.27;;;16.50;99.90;;;;;;5070026;28;20384;-54
2022/04/15 05:58:13;;;;;;;17.10;8.70;;;17.10;99.90;;;;;;5068538;28;20399;-54
2022/04/15 06:00:39;;;;;;;19.93;8.13;;;17.40;99.90;;;;;;5063607;28;20819;-53
2022/04/15 06:03:07;;;;;;;12.18;7.60;;;17.60;99.90;;;;;;5069835;28;20391;-54
2022/04/15 06:05:32;;;;;;;14.68;8.40;;;17.80;99.90;;;;;;5057994;28;20516;-55
2022/04/15 06:07:58;;;;;;;15.10;9.10;;;18.50;99.90;;;;;;5062573;28;21121;-55
2022/04/15 06:10:24;;;;;;;15.07;8.13;;;19.10;99.90;;;;;;5067701;28;20826;-56
2022/04/15 06:13:32;;;;;;;16.85;9.35;;;19.70;99.90;;;;;;5067976;28;20400;-57
2022/04/15 06:15:41;;;;;;;18.30;10.70;;;20.50;99.90;;;;;;5057203;28;20431;-55
2022/04/15 06:18:08;;;;;;;14.93;10.47;;;21.40;99.90;;;;;;5057632;28;20397;-59
2022/04/15 06:20:34;;;;;;;18.50;11.85;;;22.10;99.90;;;;;;5054900;28;20426;-59
2022/04/15 06:23:01;;;;;;;19.80;12.60;;;22.30;99.90;;;;;;5074522;28;20403;-61
2022/04/15 06:25:26;;;;;;;20.15;14.13;;;22.60;99.90;;;;;;5073263;28;20916;-61
2022/04/15 06:27:54;;;;;;;21.50;14.57;;;22.80;99.90;;;;;;5077571;28;20414;-59
2022/04/15 06:30:21;;;;;;;18.77;15.32;;;23.30;99.90;;;;;;5064672;28;20511;-59
2022/04/15 06:32:47;;;;;;;19.00;14.50;;;23.20;99.90;;;;;;5071837;28;20404;-56
2022/04/15 06:35:13;;;;;;;19.97;15.20;;;23.40;99.90;;;;;;5075240;28;20924;-56
2022/04/15 06:37:39;;;;;;;20.63;15.25;;;23.30;99.90;;;;;;5073744;28;20447;-54
2022/04/15 06:40:05;;;;;;;22.90;15.30;;;23.10;99.90;;;;;;5072353;28;20873;-56
2022/04/15 06:42:32;;;;;;;19.10;14.77;;;23.10;99.90;;;;;;5075032;28;20407;-56
2022/04/15 06:44:59;;;;;;;22.90;14.90;;;22.70;99.90;;;;;;5073966;28;21029;-56
2022/04/15 06:47:25;;;;;;;18.98;14.15;;;23.10;99.90;;;;;;5073585;28;20483;-55
2022/04/15 06:49:50;;;;;;;18.58;14.80;;;22.90;99.90;;;;;;5074099;28;20902;-56
2022/04/15 06:52:17;;;;;;;19.43;13.90;;;23.10;99.90;;;;;;5072736;28;20398;-56
2022/04/15 06:54:44;;;;;;;20.65;15.07;;;23.20;99.90;;;;;;5069457;28;20412;-56
2022/04/15 06:57:10;;;;;;;18.10;14.17;;;22.70;99.90;;;;;;5066099;28;20414;-56
2022/04/15 06:59:36;;;;;;;19.10;14.27;;;23.30;99.90;;;;;;5073032;28;20938;-57
2022/04/15 07:02:02;;;;;;;20.02;14.23;;;24.10;99.90;;;;;;5071830;28;20396;-57
2022/04/15 07:04:28;;;;;;;18.67;13.95;;;23.60;99.90;;;;;;5071491;28;20399;-56
2022/04/15 07:06:55;;;;;;;19.77;14.70;;;23.20;99.90;;;;;;5051956;28;20391;-56
2022/04/15 07:09:21;;;;;;;19.60;15.50;;;24.10;99.90;;;;;;5065496;28;20416;-56
2022/04/15 07:11:47;;;;;;;21.77;15.40;;;24.40;99.90;;;;;;5071583;28;20437;-56
2022/04/15 07:14:12;;;;;;;17.92;15.00;;;24.20;99.90;;;;;;5072447;28;20407;-57
2022/04/15 07:16:38;;;;;;;18.17;14.55;;;23.90;99.90;;;;;;5070151;28;21440;-55
2022/04/15 07:19:04;;;;;;;20.00;15.00;;;23.90;99.90;;;;;;5072926;28;20964;-57
2022/04/15 07:21:38;;;;;;;18.77;14.77;;;24.30;99.90;;;;;;5070918;28;20502;-57
2022/04/15 07:24:04;;;;;;;20.35;14.85;;;24.10;99.90;;;;;;5050155;28;20405;-57
2022/04/15 07:26:31;;;;;;;18.40;15.40;;;24.30;99.90;;;;;;5057152;28;20403;-56
2022/04/15 07:28:57;;;;;;;19.60;16.45;;;25.10;99.90;;;;;;5054340;28;20897;-56
2022/04/15 07:31:24;;;;;;;17.35;12.77;;;25.90;99.90;;;;;;5060370;28;20431;-57
2022/04/15 07:33:50;;;;;;;20.43;11.30;;;26.20;99.90;;;;;;5056825;28;20416;-57
2022/04/15 07:36:31;;;;;;;16.48;12.13;;;26.00;99.90;;;;;;5053199;28;20434;-57
2022/04/15 07:38:58;;;;;;;16.02;11.85;;;26.50;99.90;;;;;;5063186;28;20388;-56
2022/04/15 07:41:23;;;;;;;18.65;12.73;;;26.50;99.90;;;;;;5054570;28;20878;-57
2022/04/15 07:43:49;;;;;;;16.50;10.93;;;26.60;99.60;;;;;;5053827;28;20524;-57
2022/04/15 07:46:16;;;;;;;15.23;11.33;;;26.60;99.60;;;;;;5049286;28;20842;-55
2022/04/15 07:48:42;;;;;;;18.45;11.50;;;27.30;97.40;;;;;;5055756;28;20870;-55
2022/04/15 07:51:08;;;;;;;17.43;13.23;;;28.00;96.10;;;;;;5048898;28;20417;-57
2022/04/15 07:53:34;;;;;;;16.98;13.90;;;27.70;96.20;;;;;;5056112;28;20397;-56
2022/04/15 07:56:00;;;;;;;15.38;12.27;;;28.10;98.60;;;;;;5061685;28;20470;-56
2022/04/15 07:58:25;;;;;;;18.77;13.45;;;28.70;93.70;;;;;;5064154;28;20405;-57
2022/04/15 08:00:51;;;;;;;18.58;13.45;;;27.80;92.50;;;;;;5055365;28;20408;-57
2022/04/15 08:03:20;;;;;;;20.08;13.95;;;27.50;32.30;;;;;;5056200;28;20395;-57
2022/04/15 08:05:46;;;;;;;18.25;13.85;;;27.10;1.00;;;;;;5056308;28;20387;-57
2022/04/15 08:08:12;;;;;;;17.17;13.48;;;26.80;1.00;;;;;;5068493;28;20403;-56
2022/04/15 08:10:37;;;;;;;18.57;13.60;;;26.80;1.00;;;;;;5040380;28;21409;-55
2022/04/15 08:13:03;;;;;;;18.50;13.33;;;27.30;1.00;;;;;;5052828;28;20760;-57
2022/04/15 08:15:29;;;;;;;18.10;13.73;;;27.80;1.00;;;;;;5052736;28;20417;-57
2022/04/15 08:17:55;;;;;;;19.50;13.27;;;27.70;1.00;;;;;;5060973;28;20399;-57
2022/04/15 08:20:21;;;;;;;19.10;14.13;;;;;;;;;;5059940;28;20948;-57
2022/04/15 08:22:46;;;;;;;17.50;13.50;;;28.50;99.90;;;;;;5083278;28;20393;-57
2022/04/15 08:25:12;;;;;;;20.33;14.60;;;29.20;99.90;;;;;;5063706;28;20390;-57
2022/04/15 08:27:38;;;;;;;19.27;14.17;;;29.10;99.90;;;;;;5077748;28;20394;-57
2022/04/15 08:30:04;;;;;;;18.90;14.80;;;28.80;99.90;;;;;;5080584;28;20486;-57
2022/04/15 08:32:33;;;;;;;20.15;15.10;;;29.30;99.90;;;;;;5066064;28;20493;-57
2022/04/15 08:35:02;;;;;;;21.17;15.00;;;29.60;55.50;;;;;;5080738;28;20401;-57
2022/04/15 08:37:28;;;;;;;21.60;16.33;;;29.50;93.00;;;;;;5075757;28;20457;-58
2022/04/15 08:39:54;;;;;;;20.33;15.33;;;29.20;98.70;;;;;;5080278;28;20406;-58
2022/04/15 08:42:21;;;;;;;20.65;17.55;;;28.80;91.30;;;;;;5089219;28;20423;-58
2022/04/15 08:44:49;;;;;;;18.45;14.93;;;29.10;99.90;;;;;;5069637;28;20517;-58
2022/04/15 08:47:15;;;;;;;21.95;15.80;;;29.30;99.90;;;;;;5066508;28;20476;-57
2022/04/15 08:49:41;;;;;;;19.87;14.80;;;29.20;99.90;;;;;;5081900;28;20901;-56
2022/04/15 08:52:09;;;;;;;20.00;15.00;;;30.30;47.20;;;;;;5077433;28;20407;-57
2022/04/15 08:54:36;;;;;;;20.55;17.38;;;30.90;1.00;;;;;;5081143;28;20453;-58
2022/04/15 08:57:02;;;;;;;18.03;14.43;;;30.90;1.00;;;;;;5072445;28;20392;-59
2022/04/15 08:59:27;;;;;;;19.88;15.68;;;30.70;1.00;;;;;;5078279;28;20415;-57
2022/04/15 09:01:53;;;;;;;18.73;14.02;;;30.30;1.00;;;;;;5077299;28;20815;-58
2022/04/15 09:04:19;;;;;;;16.97;13.43;;;30.30;1.00;;;;;;5081196;28;20398;-58
2022/04/15 09:06:45;;;;;;;20.42;18.23;;;29.70;1.00;;;;;;5076002;28;20481;-56
2022/04/15 09:09:12;;;;;;;20.70;18.60;;;29.30;1.00;;;;;;5082358;28;20417;-58
2022/04/15 09:11:40;;;;;;;21.42;19.38;;;29.40;1.00;;;;;;5077785;28;20384;-58
2022/04/15 09:14:12;;;;;;;21.40;14.40;;;29.70;1.00;;;;;;5085065;28;20529;-57
2022/04/15 09:16:45;;;;;;;18.03;13.70;;;28.80;1.00;;;;;;5076340;28;20416;-58
2022/04/15 09:19:12;;;;;;;19.30;17.20;;;28.80;1.00;;;;;;5077394;28;20876;-58
2022/04/15 09:21:40;;;;;;;18.75;16.75;;;29.40;1.00;;;;;;5075152;28;20418;-59
2022/04/15 09:24:10;;;;;;;20.00;17.90;;;29.30;1.00;;;;;;5074021;28;20854;-57
2022/04/15 09:26:38;;;;;;;22.48;18.70;;;28.70;1.00;;;;;;5082661;28;20403;-58
2022/04/15 09:29:04;;;;;;;21.40;18.88;;;29.10;1.00;;;;;;5078808;28;20409;-58
2022/04/15 09:31:29;;;;;;;20.80;18.60;;;29.10;1.00;;;;;;5086053;28;20395;-57
2022/04/15 09:33:55;;;;;;;21.40;18.55;;;29.20;1.00;;;;;;5073885;28;20400;-58
2022/04/15 09:36:28;;;;;;;22.65;20.13;;;28.90;1.00;;;;;;5073876;28;20429;-58
2022/04/15 09:38:59;;;;;;;23.92;20.67;;;28.90;1.00;;;;;;5074048;28;20437;-58
2022/04/15 09:41:27;;;;;;;24.00;21.40;;;28.10;1.00;;;;;;5080786;28;20455;-58
2022/04/15 09:44:00;;;;;;;23.50;20.90;;;28.10;1.00;;;;;;5078861;28;20374;-58
2022/04/15 09:46:27;;;;;;;22.27;19.10;;;28.70;1.00;;;;;;5091922;28;20422;-58
2022/04/15 09:49:05;;;;;;;24.65;18.65;;;29.30;1.00;;;;;;5091374;28;20415;-58
2022/04/15 09:51:37;;;;;;;20.52;17.92;;;29.60;1.00;;;;;;5074339;28;20419;-57
2022/04/15 09:54:07;;;;;;;22.50;20.05;;;30.00;1.00;;;;;;5081209;28;21216;-58
2022/04/15 09:56:34;;;;;;;22.38;20.08;;;28.20;1.00;;;;;;5071738;28;20873;-57
2022/04/15 09:59:05;;;;;;;23.67;21.17;;;27.10;52.90;;;;;;5074567;28;20402;-58
2022/04/15 10:01:32;;;;;;;22.20;18.90;;;26.60;22.00;;;;;;5078605;28;20970;-58
2022/04/15 10:03:59;;;;;;;23.80;20.48;;;26.50;22.10;;;;;;5083026;28;20386;-56
2022/04/15 10:06:26;;;;;;;21.65;19.05;;;;;;;;;;5081415;28;20468;-56
2022/04/15 10:08:53;;;;;;;22.98;19.50;;;27.10;20.20;;;;;;5074719;28;20591;-57
2022/04/15 10:11:19;;;;;;;22.20;19.35;;;26.30;39.00;;;;;;5076301;28;20400;-57
2022/04/15 10:13:46;;;;;;;23.00;20.60;;;;;;;;;;5073421;28;20871;-56
2022/04/15 10:16:15;;;;;;;20.90;18.70;;;26.10;27.20;;;;;;5074957;28;20434;-57
2022/04/15 10:18:41;;;;;;;21.83;18.83;;;26.80;32.50;;;;;;5076122;28;20411;-57
2022/04/15 10:21:08;;;;;;;20.70;18.50;;;27.00;41.50;;;;;;5074957;28;20421;-58
2022/04/15 10:23:35;;;;;;;20.63;18.42;;;26.80;54.10;;;;;;5076138;28;20410;-57
2022/04/15 10:26:03;;;;;;;19.70;17.40;;;27.00;66.00;;;;;;5074637;28;20875;-57
2022/04/15 10:28:45;;;;;;;19.30;17.23;;;;;;;;;;5075007;28;20435;-58
2022/04/15 10:31:14;;;;;;;20.27;17.63;;;;;;;;;;5073621;28;20442;-57
2022/04/15 10:33:41;;;;;;;18.20;16.23;;;;;;;;;;5077707;28;20915;-58
2022/04/15 10:36:14;;;;;;;19.67;16.38;;;;;;;;;;5074997;28;20621;-58
2022/04/15 10:38:59;;;;;;;18.00;15.55;;;;;;;;;;5075893;28;20889;-58
2022/04/15 10:41:24;;;;;;;17.90;15.25;;;27.00;99.90;;;;;;5071485;28;20403;-58
2022/04/15 10:44:00;;;;;;;20.25;16.70;;;26.10;1.00;;;;;;5080460;28;20398;-56
2022/04/15 10:46:30;;;;;;;19.27;17.17;;;26.10;1.00;;;;;;5084155;28;20378;-57
2022/04/15 10:49:00;;;;;;;18.15;15.82;;;25.80;1.00;;;;;;5064529;28;20414;-58
2022/04/15 10:51:29;;;;;;;18.42;16.42;;;25.00;1.00;;;;;;5066545;28;21595;-57
2022/04/15 10:54:15;;;;;;;19.23;16.67;;;24.80;1.00;;;;;;5083113;28;20388;-57
2022/04/15 10:57:10;;;;;;;21.95;17.95;;;24.30;1.00;;;;;;5089984;28;20449;-58
2022/04/15 11:02:40;;;;;;;19.75;16.27;;;24.50;1.00;;;;;;5088045;28;20815;-57
2022/04/15 11:05:13;;;;;;;20.85;17.20;;;24.10;1.00;;;;;;5077443;28;20428;-58
2022/04/15 11:07:46;;;;;;;19.95;16.02;;;23.70;1.00;;;;;;5073269;28;20441;-57
2022/04/15 11:10:37;;;;;;;19.10;15.90;;;23.60;1.00;;;;;;5080340;28;20450;-58
2022/04/15 11:13:03;;;;;;;18.45;15.63;;;24.10;1.00;;;;;;5085542;28;20382;-57
2022/04/15 11:15:58;;;;;;;19.40;15.30;;;24.10;1.00;;;;;;5090198;28;20374;-57
2022/04/15 11:18:43;;;;;;;16.92;15.13;;;23.60;1.00;;;;;;5090608;28;20436;-57
2022/04/15 11:21:16;;;;;;;16.80;14.40;;;23.90;1.00;;;;;;5089326;28;20394;-57
2022/04/15 11:23:48;;;;;;;17.88;15.23;;;24.40;1.00;;;;;;5072574;28;20378;-57
2022/04/15 11:26:15;;;;;;;19.23;16.08;;;24.00;1.00;;;;;;5088872;28;20397;-57
2022/04/15 11:28:45;;;;;;;19.88;15.63;;;24.30;1.00;;;;;;5079852;28;20508;-57
2022/04/15 11:31:30;;;;;;;21.48;16.10;;;24.10;1.00;;;;;;5084157;28;20432;-57
2022/04/15 11:34:03;;;;;;;17.30;15.40;;;24.00;1.00;;;;;;5078457;28;20422;-58
2022/04/15 11:36:31;;;;;;;18.70;16.38;;;23.70;1.00;;;;;;5080646;28;21078;-57
2022/04/15 11:39:00;;;;;;;19.70;15.90;;;23.60;1.00;;;;;;5079689;28;20991;-57
2022/04/15 11:41:26;;;;;;;19.45;16.90;;;23.90;1.00;;;;;;5077623;28;20411;-56
2022/04/15 11:44:05;;;;;;;18.38;14.73;;;24.00;1.00;;;;;;5045121;28;20415;-56
2022/04/15 11:46:43;;;;;;;16.38;13.80;;;23.60;1.00;;;;;;5082880;28;20391;-57
2022/04/15 11:49:19;;;;;;;15.73;12.93;;;23.70;1.00;;;;;;5078739;28;20409;-57
2022/04/15 11:51:47;;;;;;;16.08;12.48;;;24.20;1.00;;;;;;5079477;28;20875;-57
2022/04/15 11:54:13;;;;;;;19.45;13.88;;;24.30;1.00;;;;;;5079570;28;20401;-58
2022/04/15 11:56:40;;;;;;;17.83;14.53;;;24.60;1.00;;;;;;5081862;28;20384;-58
2022/04/15 11:59:09;;;;;;;16.80;14.53;;;24.60;1.00;;;;;;5063566;28;20374;-57
2022/04/15 12:01:35;;;;;;;16.48;13.10;;;24.60;1.00;;;;;;5075264;28;20426;-58
2022/04/15 12:04:01;;;;;;;15.07;12.75;;;24.10;1.00;;;;;;5074018;28;20765;-59
2022/04/15 12:06:29;;;;;;;14.43;11.77;;;23.80;1.00;;;;;;5084861;28;20397;-57
2022/04/15 12:08:56;;;;;;;12.20;10.20;;;23.40;1.00;;;;;;5086394;28;20406;-57
2022/04/15 12:11:24;;;;;;;12.10;9.98;;;23.20;1.00;;;;;;5089618;28;20859;-57
2022/04/15 12:14:08;;;;;;;14.27;10.85;;;23.20;1.00;;;;;;5087260;28;20396;-56
2022/04/15 12:16:36;;;;;;;13.45;10.38;;;23.00;1.00;;;;;;5088634;28;20404;-57
2022/04/15 12:19:04;;;;;;;13.02;10.75;;;23.30;1.00;;;;;;5086812;28;20741;-57
2022/04/15 12:21:31;;;;;;;12.57;10.70;;;23.40;1.00;;;;;;5075760;28;20406;-57
2022/04/15 12:23:59;;;;;;;12.88;11.27;;;23.30;1.00;;;;;;5064435;28;20512;-57
2022/04/15 12:26:25;;;;;;;12.80;10.75;;;23.20;1.00;;;;;;5064278;28;20415;-58
2022/04/15 12:31:34;;;;;;;12.60;10.27;;;22.90;1.00;;;;;;5063834;28;20397;-57
2022/04/15 12:34:02;;;;;;;12.53;10.93;;;22.90;1.00;;;;;;5045116;28;20389;-58
2022/04/15 12:36:48;;;;;;;13.20;10.93;;;23.40;1.00;;;;;;5063692;28;20512;-57
2022/04/15 12:39:14;;;;;;;13.18;10.38;;;23.80;1.00;;;;;;5063830;28;20448;-57
2022/04/15 12:41:48;;;;;;;12.97;10.97;;;23.70;1.00;;;;;;5066515;28;20882;-57
2022/04/15 12:44:27;;;;;;;12.90;11.20;;;23.30;1.00;;;;;;5057422;28;20376;-57
2022/04/15 12:47:02;;;;;;;13.73;12.25;;;23.30;1.00;;;;;;5059254;28;20391;-55